Hollister, Wisconsin
Current Conditions -  °F | °C
As of 11:15 PM on Wednesday 22 Oct 2014 (Local Time) from KAIG Reporting Station
Clear Clear  
Wind Chill: 35°   Ceiling: Unl
Heat Index: 35°   Visibility: 7mi
Dew Point: 35°   Wind: 3mph
Humidity: 99%   Direction: 160°SSE
Pressure: 30.2"   Gusts: NA
Location:  45.261°N, 88.731°W
Report Text: KAIG 230415Z AUTO 16003KT 7SM CLR 02/02 A3020 RMK AO2 T00170015
Loading
Personal Weather Stations






























Interactive Weather Map New forecast layout! Learn more

10-Day Weather Forecast

Advertisements
Track Severe Weather on mobile